WAT850 EKVG-EGPH
Flight info
| Callsign | WAT850 |
|---|---|
| Flight time | 1h 5m |
| Altitude | 35000 |
| Route | ODEVA DCT NALAN DCT LAGAV/N0401F240 N560 FOYLE DCT STIRA |
| Aircraft | B738/M-SDE2E3FGHIRWXY/LB1 |
Departure
| Time | 2026-04-24 22:22 |
|---|---|
| Airport | Vágar Airport (EKVG) |
Arrival
| Time | 2026-04-24 23:27 |
|---|---|
| Airport | Edinburgh Airport (EGPH) |
| Time | Latitude | Longitude | Altitude | Speed | Heading |
|---|---|---|---|---|---|
| 2026-04-24 22:08 | 62.06703 | -7.28024 | 294 ft | 0 kts | 74° |
| 2026-04-24 22:14 | 62.06701 | -7.28042 | 294 ft | 2 kts | 74° |
| 2026-04-24 22:14 | 62.06696 | -7.28073 | 294 ft | 2 kts | 74° |
| 2026-04-24 22:14 | 62.06694 | -7.28104 | 294 ft | 2 kts | 107° |
| 2026-04-24 22:15 | 62.06697 | -7.28118 | 294 ft | 1 kts | 124° |
| 2026-04-24 22:15 | 62.06700 | -7.28128 | 294 ft | 0 kts | 120° |
| 2026-04-24 22:17 | 62.06699 | -7.28125 | 294 ft | 0 kts | 120° |
| 2026-04-24 22:17 | 62.06686 | -7.28095 | 293 ft | 6 kts | 145° |
| 2026-04-24 22:17 | 62.06667 | -7.28080 | 294 ft | 0 kts | 172° |
| 2026-04-24 22:18 | 62.06666 | -7.28080 | 294 ft | 0 kts | 172° |
| 2026-04-24 22:18 | 62.06655 | -7.28077 | 294 ft | 2 kts | 173° |
| 2026-04-24 22:18 | 62.06615 | -7.28070 | 293 ft | 8 kts | 180° |
| 2026-04-24 22:18 | 62.06555 | -7.28081 | 294 ft | 11 kts | 196° |
| 2026-04-24 22:19 | 62.06482 | -7.28135 | 294 ft | 10 kts | 174° |
| 2026-04-24 22:19 | 62.06426 | -7.27996 | 294 ft | 18 kts | 119° |
| 2026-04-24 22:19 | 62.06339 | -7.27652 | 294 ft | 33 kts | 117° |
| 2026-04-24 22:19 | 62.06231 | -7.27201 | 293 ft | 32 kts | 118° |
| 2026-04-24 22:20 | 62.06127 | -7.26789 | 294 ft | 31 kts | 118° |
| 2026-04-24 22:20 | 62.06034 | -7.26416 | 294 ft | 20 kts | 118° |
| 2026-04-24 22:20 | 62.05968 | -7.26152 | 294 ft | 16 kts | 118° |
| 2026-04-24 22:20 | 62.05926 | -7.26025 | 294 ft | 7 kts | 136° |
| 2026-04-24 22:21 | 62.05932 | -7.25978 | 294 ft | 3 kts | 342° |
| 2026-04-24 22:21 | 62.05942 | -7.26032 | 294 ft | 4 kts | 281° |
| 2026-04-24 22:21 | 62.05955 | -7.26102 | 294 ft | 9 kts | 298° |
| 2026-04-24 22:21 | 62.06066 | -7.26532 | 294 ft | 69 kts | 299° |
| 2026-04-24 22:22 | 62.06414 | -7.27955 | 295 ft | 146 kts | 298° |
| 2026-04-24 22:22 | 62.06929 | -7.30029 | 915 ft | 167 kts | 302° |
| 2026-04-24 22:22 | 62.07481 | -7.32233 | 1867 ft | 178 kts | 300° |
| 2026-04-24 22:22 | 62.07915 | -7.34801 | 2558 ft | 192 kts | 290° |
| 2026-04-24 22:23 | 62.08232 | -7.37503 | 3459 ft | 192 kts | 290° |
| 2026-04-24 22:23 | 62.08573 | -7.40348 | 4079 ft | 207 kts | 291° |
| 2026-04-24 22:23 | 62.09004 | -7.43437 | 4546 ft | 230 kts | 293° |
| 2026-04-24 22:23 | 62.09469 | -7.46648 | 5632 ft | 227 kts | 289° |
| 2026-04-24 22:24 | 62.09710 | -7.49882 | 6561 ft | 233 kts | 275° |
| 2026-04-24 22:24 | 62.09454 | -7.53401 | 7382 ft | 246 kts | 256° |
| 2026-04-24 22:24 | 62.08667 | -7.56590 | 8413 ft | 250 kts | 239° |
| 2026-04-24 22:24 | 62.07470 | -7.59358 | 9150 ft | 264 kts | 229° |
| 2026-04-24 22:25 | 62.06035 | -7.61826 | 10068 ft | 268 kts | 221° |
| 2026-04-24 22:25 | 62.04426 | -7.63723 | 11077 ft | 268 kts | 208° |
| 2026-04-24 22:25 | 62.02600 | -7.64783 | 11629 ft | 290 kts | 191° |
| 2026-04-24 22:25 | 62.00567 | -7.64163 | 12338 ft | 303 kts | 162° |
| 2026-04-24 22:26 | 61.98726 | -7.62039 | 13125 ft | 308 kts | 145° |
| 2026-04-24 22:26 | 61.97176 | -7.58947 | 13810 ft | 313 kts | 132° |
| 2026-04-24 22:26 | 61.95599 | -7.55615 | 14260 ft | 328 kts | 140° |
| 2026-04-24 22:26 | 61.93758 | -7.52545 | 14674 ft | 344 kts | 145° |
| 2026-04-24 22:27 | 61.91811 | -7.49535 | 15069 ft | 359 kts | 145° |
| 2026-04-24 22:27 | 61.89743 | -7.46293 | 15451 ft | 376 kts | 144° |
| 2026-04-24 22:27 | 61.87618 | -7.42858 | 15840 ft | 390 kts | 143° |
| 2026-04-24 22:27 | 61.85470 | -7.39308 | 16183 ft | 405 kts | 142° |
| 2026-04-24 22:28 | 61.83219 | -7.35538 | 16500 ft | 421 kts | 142° |
| 2026-04-24 22:28 | 61.80913 | -7.31656 | 17065 ft | 427 kts | 142° |
| 2026-04-24 22:28 | 61.78605 | -7.27766 | 17753 ft | 430 kts | 142° |
| 2026-04-24 22:28 | 61.76253 | -7.23810 | 18353 ft | 435 kts | 142° |
| 2026-04-24 22:29 | 61.71481 | -7.15813 | 19634 ft | 443 kts | 142° |
| 2026-04-24 22:29 | 61.69061 | -7.11774 | 20235 ft | 447 kts | 142° |
| 2026-04-24 22:29 | 61.66615 | -7.07705 | 20853 ft | 451 kts | 142° |
| 2026-04-24 22:30 | 61.64187 | -7.03674 | 21430 ft | 455 kts | 142° |
| 2026-04-24 22:30 | 61.61682 | -6.99524 | 22038 ft | 458 kts | 142° |
| 2026-04-24 22:30 | 61.59196 | -6.95414 | 22546 ft | 463 kts | 142° |
| 2026-04-24 22:30 | 61.56675 | -6.91256 | 23112 ft | 466 kts | 142° |
| 2026-04-24 22:31 | 61.54096 | -6.87009 | 23693 ft | 469 kts | 142° |
| 2026-04-24 22:31 | 61.51544 | -6.82818 | 24201 ft | 473 kts | 142° |
| 2026-04-24 22:31 | 61.48972 | -6.78603 | 24734 ft | 476 kts | 142° |
| 2026-04-24 22:31 | 61.46340 | -6.74298 | 25292 ft | 479 kts | 142° |
| 2026-04-24 22:32 | 61.43735 | -6.70049 | 25845 ft | 481 kts | 141° |
| 2026-04-24 22:32 | 61.41099 | -6.65754 | 26316 ft | 485 kts | 142° |
| 2026-04-24 22:32 | 61.38421 | -6.61401 | 26821 ft | 488 kts | 142° |
| 2026-04-24 22:32 | 61.35757 | -6.57083 | 27292 ft | 491 kts | 142° |
| 2026-04-24 22:33 | 61.33074 | -6.52744 | 27806 ft | 493 kts | 142° |
| 2026-04-24 22:33 | 61.30347 | -6.48342 | 28252 ft | 497 kts | 141° |
| 2026-04-24 22:33 | 61.27586 | -6.43895 | 28703 ft | 500 kts | 141° |
| 2026-04-24 22:33 | 61.24804 | -6.39425 | 29241 ft | 501 kts | 141° |
| 2026-04-24 22:34 | 61.22068 | -6.35040 | 29906 ft | 498 kts | 141° |
| 2026-04-24 22:34 | 61.19320 | -6.30646 | 30615 ft | 495 kts | 142° |
| 2026-04-24 22:34 | 61.16575 | -6.26267 | 31213 ft | 493 kts | 142° |
| 2026-04-24 22:34 | 61.13876 | -6.21971 | 31680 ft | 493 kts | 142° |
| 2026-04-24 22:35 | 61.11167 | -6.17669 | 32184 ft | 493 kts | 142° |
| 2026-04-24 22:35 | 61.08474 | -6.13400 | 32799 ft | 489 kts | 142° |
| 2026-04-24 22:35 | 61.05761 | -6.09109 | 33264 ft | 489 kts | 143° |
| 2026-04-24 22:35 | 61.03067 | -6.04987 | 33739 ft | 488 kts | 145° |
| 2026-04-24 22:36 | 61.00212 | -6.01221 | 34179 ft | 487 kts | 151° |
| 2026-04-24 22:36 | 60.97208 | -5.98078 | 34606 ft | 486 kts | 157° |
| 2026-04-24 22:36 | 60.94107 | -5.95621 | 35017 ft | 483 kts | 164° |
| 2026-04-24 22:36 | 60.90858 | -5.93767 | 35264 ft | 483 kts | 169° |
| 2026-04-24 22:37 | 60.84305 | -5.91050 | 35290 ft | 479 kts | 172° |
| 2026-04-24 22:37 | 60.77814 | -5.88482 | 35290 ft | 479 kts | 171° |
| 2026-04-24 22:38 | 60.71286 | -5.85675 | 35288 ft | 479 kts | 169° |
| 2026-04-24 22:38 | 60.64821 | -5.82712 | 35284 ft | 480 kts | 169° |
| 2026-04-24 22:39 | 60.58361 | -5.79655 | 35282 ft | 479 kts | 168° |
| 2026-04-24 22:39 | 60.51895 | -5.76562 | 35282 ft | 479 kts | 168° |
| 2026-04-24 22:40 | 60.45417 | -5.73462 | 35277 ft | 479 kts | 168° |
| 2026-04-24 22:40 | 60.38961 | -5.70380 | 35276 ft | 478 kts | 168° |
| 2026-04-24 22:41 | 60.32514 | -5.67316 | 35274 ft | 478 kts | 168° |
| 2026-04-24 22:41 | 60.27145 | -5.64774 | 35285 ft | 478 kts | 168° |
| 2026-04-24 22:42 | 60.19625 | -5.61228 | 35287 ft | 477 kts | 168° |
| 2026-04-24 22:42 | 60.13157 | -5.58190 | 35279 ft | 477 kts | 168° |
| 2026-04-24 22:43 | 60.06744 | -5.55191 | 35275 ft | 477 kts | 168° |
| 2026-04-24 22:43 | 60.00303 | -5.52192 | 35274 ft | 477 kts | 168° |
| 2026-04-24 22:44 | 59.93860 | -5.49203 | 35273 ft | 476 kts | 168° |
| 2026-04-24 22:44 | 59.87413 | -5.46223 | 35275 ft | 476 kts | 168° |
| 2026-04-24 22:45 | 59.81025 | -5.43282 | 35277 ft | 476 kts | 168° |
| 2026-04-24 22:45 | 59.74528 | -5.40305 | 35271 ft | 477 kts | 168° |
| 2026-04-24 22:46 | 59.68100 | -5.37373 | 35273 ft | 476 kts | 168° |
| 2026-04-24 22:46 | 59.61656 | -5.34443 | 35269 ft | 476 kts | 169° |
| 2026-04-24 22:47 | 59.55236 | -5.31535 | 35270 ft | 476 kts | 169° |
| 2026-04-24 22:47 | 59.48777 | -5.28621 | 35265 ft | 477 kts | 170° |
| 2026-04-24 22:48 | 59.42310 | -5.25715 | 35262 ft | 476 kts | 170° |
| 2026-04-24 22:48 | 59.35883 | -5.22837 | 35261 ft | 475 kts | 170° |
| 2026-04-24 22:49 | 59.29492 | -5.19985 | 35261 ft | 474 kts | 170° |
| 2026-04-24 22:49 | 59.23057 | -5.17129 | 35260 ft | 473 kts | 170° |
| 2026-04-24 22:50 | 59.16685 | -5.14309 | 35258 ft | 474 kts | 170° |
| 2026-04-24 22:50 | 59.10262 | -5.11481 | 35259 ft | 474 kts | 170° |
| 2026-04-24 22:51 | 59.03811 | -5.08649 | 35260 ft | 474 kts | 170° |
| 2026-04-24 22:51 | 58.97435 | -5.05862 | 35268 ft | 473 kts | 170° |
| 2026-04-24 22:52 | 58.91018 | -5.03068 | 35274 ft | 471 kts | 170° |
| 2026-04-24 22:52 | 58.84644 | -5.00303 | 35274 ft | 472 kts | 170° |
| 2026-04-24 22:53 | 58.78243 | -4.97532 | 35273 ft | 472 kts | 170° |
| 2026-04-24 22:53 | 58.71847 | -4.94775 | 35270 ft | 471 kts | 170° |
| 2026-04-24 22:54 | 58.65437 | -4.92026 | 35267 ft | 471 kts | 170° |
| 2026-04-24 22:54 | 58.59044 | -4.89295 | 35261 ft | 472 kts | 170° |
| 2026-04-24 22:55 | 58.52694 | -4.86590 | 35255 ft | 471 kts | 170° |
| 2026-04-24 22:55 | 58.46285 | -4.83872 | 35250 ft | 471 kts | 171° |
| 2026-04-24 22:56 | 58.39928 | -4.81185 | 35244 ft | 472 kts | 171° |
| 2026-04-24 22:56 | 58.33528 | -4.78490 | 35237 ft | 471 kts | 171° |
| 2026-04-24 22:57 | 58.27159 | -4.75817 | 35238 ft | 471 kts | 171° |
| 2026-04-24 22:57 | 58.20789 | -4.73153 | 35239 ft | 471 kts | 171° |
| 2026-04-24 22:58 | 58.14404 | -4.70495 | 35234 ft | 471 kts | 171° |
| 2026-04-24 22:58 | 58.08009 | -4.67842 | 35231 ft | 471 kts | 171° |
| 2026-04-24 22:59 | 58.01610 | -4.65197 | 35228 ft | 471 kts | 171° |
| 2026-04-24 23:00 | 57.92028 | -4.61255 | 35227 ft | 470 kts | 171° |
| 2026-04-24 23:00 | 57.85654 | -4.58643 | 35225 ft | 469 kts | 171° |
| 2026-04-24 23:01 | 57.79260 | -4.56033 | 35226 ft | 469 kts | 171° |
| 2026-04-24 23:01 | 57.72922 | -4.53456 | 35226 ft | 469 kts | 170° |
| 2026-04-24 23:02 | 57.66536 | -4.50842 | 35234 ft | 467 kts | 170° |
| 2026-04-24 23:02 | 57.60182 | -4.48171 | 35230 ft | 468 kts | 170° |
| 2026-04-24 23:03 | 57.53867 | -4.45505 | 35232 ft | 467 kts | 170° |
| 2026-04-24 23:03 | 57.47543 | -4.42849 | 35229 ft | 466 kts | 169° |
| 2026-04-24 23:03 | 57.44375 | -4.41524 | 34995 ft | 460 kts | 169° |
| 2026-04-24 23:04 | 57.41275 | -4.40229 | 34511 ft | 456 kts | 169° |
| 2026-04-24 23:04 | 57.38189 | -4.38943 | 33842 ft | 456 kts | 169° |
| 2026-04-24 23:04 | 57.35107 | -4.37664 | 33098 ft | 457 kts | 169° |
| 2026-04-24 23:04 | 57.32010 | -4.36383 | 32322 ft | 458 kts | 169° |
| 2026-04-24 23:05 | 57.28957 | -4.35122 | 31779 ft | 453 kts | 169° |
| 2026-04-24 23:05 | 57.25870 | -4.33846 | 31210 ft | 449 kts | 170° |
| 2026-04-24 23:05 | 57.22883 | -4.32615 | 30625 ft | 445 kts | 169° |
| 2026-04-24 23:05 | 57.19859 | -4.31371 | 30023 ft | 442 kts | 169° |
| 2026-04-24 23:06 | 57.16891 | -4.30152 | 29439 ft | 438 kts | 169° |
| 2026-04-24 23:06 | 57.13939 | -4.28942 | 28851 ft | 435 kts | 169° |
| 2026-04-24 23:06 | 57.11002 | -4.27740 | 28264 ft | 431 kts | 169° |
| 2026-04-24 23:06 | 57.08110 | -4.26560 | 27686 ft | 428 kts | 169° |
| 2026-04-24 23:07 | 57.05233 | -4.25387 | 27115 ft | 424 kts | 169° |
| 2026-04-24 23:07 | 57.02348 | -4.24213 | 26530 ft | 421 kts | 169° |
| 2026-04-24 23:07 | 56.99512 | -4.23061 | 25954 ft | 418 kts | 169° |
| 2026-04-24 23:07 | 56.96697 | -4.21919 | 25382 ft | 414 kts | 169° |
| 2026-04-24 23:08 | 56.93919 | -4.20794 | 24811 ft | 411 kts | 169° |
| 2026-04-24 23:08 | 56.91114 | -4.19659 | 24238 ft | 408 kts | 169° |
| 2026-04-24 23:08 | 56.88384 | -4.18556 | 23676 ft | 405 kts | 169° |
| 2026-04-24 23:08 | 56.85623 | -4.17442 | 23107 ft | 403 kts | 169° |
| 2026-04-24 23:09 | 56.82909 | -4.16349 | 22542 ft | 400 kts | 169° |
| 2026-04-24 23:09 | 56.80233 | -4.15273 | 21991 ft | 397 kts | 169° |
| 2026-04-24 23:09 | 56.77539 | -4.14192 | 21430 ft | 394 kts | 169° |
| 2026-04-24 23:09 | 56.74880 | -4.13126 | 20868 ft | 392 kts | 169° |
| 2026-04-24 23:10 | 56.72244 | -4.12072 | 20310 ft | 389 kts | 169° |
| 2026-04-24 23:10 | 56.69611 | -4.11019 | 19751 ft | 386 kts | 169° |
| 2026-04-24 23:10 | 56.67032 | -4.09989 | 19210 ft | 383 kts | 169° |
| 2026-04-24 23:10 | 56.64424 | -4.08949 | 18769 ft | 376 kts | 169° |
| 2026-04-24 23:11 | 56.61904 | -4.07945 | 18410 ft | 368 kts | 169° |
| 2026-04-24 23:11 | 56.59439 | -4.06964 | 17934 ft | 365 kts | 169° |
| 2026-04-24 23:11 | 56.56981 | -4.05988 | 17419 ft | 362 kts | 169° |
| 2026-04-24 23:11 | 56.54511 | -4.05010 | 16892 ft | 360 kts | 169° |
| 2026-04-24 23:12 | 56.52088 | -4.04051 | 16363 ft | 358 kts | 169° |
| 2026-04-24 23:12 | 56.49665 | -4.03093 | 15856 ft | 356 kts | 169° |
| 2026-04-24 23:12 | 56.47255 | -4.02142 | 15342 ft | 354 kts | 169° |
| 2026-04-24 23:12 | 56.44862 | -4.01198 | 14824 ft | 352 kts | 168° |
| 2026-04-24 23:13 | 56.42474 | -4.00258 | 14315 ft | 351 kts | 168° |
| 2026-04-24 23:13 | 56.40089 | -3.99320 | 13797 ft | 350 kts | 168° |
| 2026-04-24 23:13 | 56.37714 | -3.98387 | 13278 ft | 349 kts | 168° |
| 2026-04-24 23:13 | 56.35359 | -3.97463 | 12763 ft | 347 kts | 168° |
| 2026-04-24 23:14 | 56.33007 | -3.96541 | 12250 ft | 346 kts | 168° |
| 2026-04-24 23:14 | 56.30661 | -3.95623 | 11733 ft | 344 kts | 168° |
| 2026-04-24 23:14 | 56.28348 | -3.94718 | 11232 ft | 342 kts | 168° |
| 2026-04-24 23:14 | 56.26028 | -3.93812 | 10761 ft | 339 kts | 168° |
| 2026-04-24 23:15 | 56.23759 | -3.92927 | 10510 ft | 327 kts | 168° |
| 2026-04-24 23:15 | 56.21599 | -3.92085 | 10410 ft | 310 kts | 168° |
| 2026-04-24 23:15 | 56.19546 | -3.91285 | 10255 ft | 297 kts | 168° |
| 2026-04-24 23:15 | 56.17550 | -3.90510 | 9784 ft | 295 kts | 168° |
| 2026-04-24 23:16 | 56.15546 | -3.89732 | 9215 ft | 295 kts | 168° |
| 2026-04-24 23:16 | 56.13533 | -3.88952 | 8661 ft | 293 kts | 168° |
| 2026-04-24 23:16 | 56.11553 | -3.88185 | 8131 ft | 291 kts | 168° |
| 2026-04-24 23:16 | 56.09618 | -3.87436 | 7686 ft | 285 kts | 168° |
| 2026-04-24 23:17 | 56.07673 | -3.86684 | 7230 ft | 280 kts | 168° |
| 2026-04-24 23:17 | 56.05790 | -3.85957 | 6781 ft | 276 kts | 168° |
| 2026-04-24 23:17 | 56.03926 | -3.85238 | 6346 ft | 271 kts | 168° |
| 2026-04-24 23:17 | 56.02109 | -3.84539 | 5945 ft | 266 kts | 168° |
| 2026-04-24 23:18 | 56.00324 | -3.83852 | 5539 ft | 261 kts | 168° |
| 2026-04-24 23:18 | 55.98562 | -3.83174 | 5128 ft | 257 kts | 168° |
| 2026-04-24 23:18 | 55.96852 | -3.82517 | 4728 ft | 252 kts | 168° |
| 2026-04-24 23:18 | 55.95152 | -3.81864 | 4324 ft | 246 kts | 168° |
| 2026-04-24 23:19 | 55.93489 | -3.81226 | 3976 ft | 237 kts | 168° |
| 2026-04-24 23:19 | 55.91957 | -3.80639 | 3928 ft | 217 kts | 168° |
| 2026-04-24 23:19 | 55.90561 | -3.80104 | 3956 ft | 195 kts | 168° |
| 2026-04-24 23:19 | 55.89276 | -3.79612 | 3936 ft | 178 kts | 168° |
| 2026-04-24 23:20 | 55.88131 | -3.79174 | 3936 ft | 163 kts | 168° |
| 2026-04-24 23:20 | 55.87021 | -3.78751 | 3942 ft | 162 kts | 168° |
| 2026-04-24 23:20 | 55.85915 | -3.78329 | 3941 ft | 161 kts | 168° |
| 2026-04-24 23:20 | 55.84828 | -3.77914 | 3938 ft | 162 kts | 168° |
| 2026-04-24 23:21 | 55.83761 | -3.77267 | 3939 ft | 162 kts | 148° |
| 2026-04-24 23:21 | 55.83050 | -3.75741 | 3941 ft | 162 kts | 111° |
| 2026-04-24 23:21 | 55.82968 | -3.73764 | 3940 ft | 161 kts | 73° |
| 2026-04-24 23:21 | 55.83366 | -3.71908 | 3942 ft | 161 kts | 65° |
| 2026-04-24 23:22 | 55.83844 | -3.70106 | 3945 ft | 160 kts | 61° |
| 2026-04-24 23:22 | 55.84377 | -3.68390 | 3944 ft | 160 kts | 58° |
| 2026-04-24 23:22 | 55.84945 | -3.66672 | 3885 ft | 161 kts | 57° |
| 2026-04-24 23:22 | 55.85530 | -3.64942 | 3643 ft | 163 kts | 57° |
| 2026-04-24 23:23 | 55.86118 | -3.63213 | 3399 ft | 162 kts | 57° |
| 2026-04-24 23:23 | 55.86702 | -3.61508 | 3171 ft | 161 kts | 57° |
| 2026-04-24 23:23 | 55.87275 | -3.59834 | 2944 ft | 157 kts | 57° |
| 2026-04-24 23:23 | 55.87846 | -3.58168 | 2722 ft | 156 kts | 57° |
| 2026-04-24 23:24 | 55.88415 | -3.56508 | 2498 ft | 156 kts | 57° |
| 2026-04-24 23:24 | 55.88959 | -3.54918 | 2299 ft | 147 kts | 57° |
| 2026-04-24 23:24 | 55.89484 | -3.53385 | 2080 ft | 143 kts | 57° |
| 2026-04-24 23:24 | 55.90002 | -3.51870 | 1884 ft | 143 kts | 57° |
| 2026-04-24 23:25 | 55.90521 | -3.50352 | 1683 ft | 143 kts | 57° |
| 2026-04-24 23:25 | 55.91038 | -3.48840 | 1483 ft | 141 kts | 57° |
| 2026-04-24 23:25 | 55.91540 | -3.47369 | 1288 ft | 140 kts | 58° |
| 2026-04-24 23:25 | 55.92046 | -3.45891 | 1118 ft | 139 kts | 57° |
| 2026-04-24 23:26 | 55.92567 | -3.44418 | 917 ft | 139 kts | 57° |
| 2026-04-24 23:26 | 55.93052 | -3.43007 | 698 ft | 130 kts | 58° |
| 2026-04-24 23:26 | 55.93523 | -3.41639 | 528 ft | 129 kts | 58° |
| 2026-04-24 23:26 | 55.93994 | -3.40242 | 362 ft | 132 kts | 59° |
| 2026-04-24 23:27 | 55.94466 | -3.38830 | 157 ft | 133 kts | 59° |
| 2026-04-24 23:27 | 55.94928 | -3.37470 | 98 ft | 116 kts | 58° |
| 2026-04-24 23:27 | 55.95230 | -3.36571 | 101 ft | 38 kts | 58° |
| 2026-04-24 23:27 | 55.95235 | -3.36396 | 101 ft | 16 kts | 143° |
| 2026-04-24 23:28 | 55.95172 | -3.36324 | 101 ft | 10 kts | 147° |
| 2026-04-24 23:28 | 55.95126 | -3.36174 | 101 ft | 14 kts | 107° |
| 2026-04-24 23:28 | 55.95095 | -3.36008 | 101 ft | 10 kts | 112° |
| 2026-04-24 23:28 | 55.95052 | -3.35948 | 102 ft | 8 kts | 189° |
| 2026-04-24 23:29 | 55.95020 | -3.36010 | 101 ft | 5 kts | 242° |
| 2026-04-24 23:29 | 55.95019 | -3.36015 | 101 ft | 0 kts | 242° |